Time;durP1;ratioP1;P1;durP2;ratioP2;P2;SDS_P1;SDS_P2;PMS_P1;PMS_P2;Temp;Humidity;BMP_temperature;BMP_pressure;BME280_temperature;BME280_humidity;BME280_pressure;Samples;Min_cycle;Max_cycle;Signal;HPM_P1;HPM_P2
2021/12/20 00:00:23;;;;;;;7.38;0.85;;;2.60;99.90;;;;;;4991829;28;20145;-90
2021/12/20 00:02:57;;;;;;;7.68;1.00;;;2.70;99.90;;;;;;4984427;28;20054;-90
2021/12/20 00:05:24;;;;;;;8.55;0.90;;;2.70;99.90;;;;;;4991292;28;20141;-90
2021/12/20 00:07:51;;;;;;;4.40;0.70;;;2.70;99.90;;;;;;4991550;28;20058;-89
2021/12/20 00:10:19;;;;;;;4.10;1.08;;;2.70;99.90;;;;;;4991979;28;20073;-91
2021/12/20 00:12:49;;;;;;;8.27;1.23;;;2.70;99.90;;;;;;4975306;28;20070;-92
2021/12/20 00:15:17;;;;;;;13.93;1.35;;;2.70;99.90;;;;;;4988121;28;20133;-91
2021/12/20 00:17:44;;;;;;;9.68;1.17;;;2.70;99.90;;;;;;4991210;28;20047;-91
2021/12/20 00:20:18;;;;;;;13.83;1.07;;;2.60;99.90;;;;;;4963576;28;20062;-90
2021/12/20 00:22:45;;;;;;;8.20;0.82;;;2.60;99.90;;;;;;4974532;28;20588;-91
2021/12/20 00:25:12;;;;;;;9.32;1.00;;;2.50;99.90;;;;;;4991645;28;20136;-91
2021/12/20 00:27:39;;;;;;;11.60;1.13;;;2.50;99.90;;;;;;4990851;28;20483;-91
2021/12/20 00:30:08;;;;;;;4.20;0.90;;;2.50;99.90;;;;;;4976635;28;20046;-91
2021/12/20 00:32:35;;;;;;;5.88;0.82;;;2.60;99.90;;;;;;4992072;28;20050;-90
2021/12/20 00:35:03;;;;;;;8.07;1.15;;;2.50;99.90;;;;;;5001976;28;20047;-91
2021/12/20 00:40:21;;;;;;;8.15;0.98;;;2.50;99.90;;;;;;4992925;28;20078;-90
2021/12/20 00:42:48;;;;;;;7.65;1.10;;;2.80;99.90;;;;;;4991082;28;20092;-91
2021/12/20 00:45:14;;;;;;;6.38;1.17;;;2.50;99.90;;;;;;4975691;28;20462;-91
2021/12/20 00:47:41;;;;;;;16.70;1.52;;;2.40;99.90;;;;;;4991878;28;20146;-92
2021/12/20 00:50:10;;;;;;;10.75;1.23;;;2.70;99.90;;;;;;4991695;28;20504;-92
2021/12/20 00:52:37;;;;;;;7.22;1.10;;;2.50;99.90;;;;;;4991701;28;20148;-92
2021/12/20 00:55:05;;;;;;;7.28;1.17;;;2.30;99.90;;;;;;4991913;28;20069;-92
2021/12/20 00:57:32;;;;;;;5.85;1.80;;;2.40;99.90;;;;;;4991411;28;20081;-91
2021/12/20 00:59:59;;;;;;;5.55;1.30;;;2.40;99.90;;;;;;4975342;28;20062;-91
2021/12/20 01:02:26;;;;;;;8.80;1.25;;;2.40;99.90;;;;;;4975044;28;20092;-91
2021/12/20 01:04:52;;;;;;;17.17;1.50;;;2.40;99.90;;;;;;4980578;28;20078;-91
2021/12/20 01:07:19;;;;;;;13.60;1.92;;;2.30;99.90;;;;;;4990254;28;20085;-92
2021/12/20 01:09:46;;;;;;;10.13;1.67;;;2.20;99.90;;;;;;4991214;28;20054;-91
2021/12/20 01:12:18;;;;;;;7.65;1.58;;;2.30;99.90;;;;;;4994574;28;20090;-91
2021/12/20 01:14:47;;;;;;;16.80;1.63;;;2.60;99.90;;;;;;4993168;28;20109;-91
2021/12/20 01:17:13;;;;;;;17.33;2.08;;;2.40;99.90;;;;;;4989297;28;20134;-91
2021/12/20 01:19:40;;;;;;;5.22;1.40;;;2.40;99.90;;;;;;4975461;28;20054;-91
2021/12/20 01:22:07;;;;;;;11.85;1.63;;;2.40;99.90;;;;;;4990806;28;20050;-91
2021/12/20 01:24:34;;;;;;;11.23;2.45;;;2.40;99.90;;;;;;4989403;28;20054;-91
2021/12/20 01:27:01;;;;;;;14.52;1.38;;;2.50;99.90;;;;;;4983768;28;20101;-91
2021/12/20 01:29:28;;;;;;;11.68;1.77;;;2.50;99.90;;;;;;4959261;28;20082;-90
2021/12/20 01:31:55;;;;;;;11.82;1.38;;;2.50;99.90;;;;;;4967697;28;20125;-90
2021/12/20 01:34:22;;;;;;;7.43;1.25;;;2.60;99.90;;;;;;4992340;28;20059;-90
2021/12/20 01:36:48;;;;;;;6.80;1.17;;;2.50;99.90;;;;;;4984709;28;20074;-89
2021/12/20 01:39:15;;;;;;;8.65;1.50;;;2.50;99.90;;;;;;4983860;28;20145;-89
2021/12/20 01:41:43;;;;;;;17.88;1.20;;;2.40;99.90;;;;;;4990473;28;20085;-89
2021/12/20 01:44:11;;;;;;;18.13;1.70;;;2.40;99.90;;;;;;4990543;28;20057;-89
2021/12/20 01:46:39;;;;;;;10.90;1.58;;;2.50;99.90;;;;;;5007095;28;20145;-89
2021/12/20 01:49:10;;;;;;;4.47;1.20;;;2.50;99.90;;;;;;4989322;28;20153;-89
2021/12/20 01:51:50;;;;;;;8.98;1.05;;;2.40;99.90;;;;;;4987505;28;20054;-89
2021/12/20 01:54:17;;;;;;;8.65;1.75;;;2.40;99.90;;;;;;4984308;28;20065;-89
2021/12/20 01:56:45;;;;;;;6.80;1.55;;;2.30;99.90;;;;;;4990417;28;20085;-89
2021/12/20 01:59:12;;;;;;;3.70;1.15;;;2.40;99.90;;;;;;4989218;28;20399;-89
2021/12/20 02:01:40;;;;;;;9.68;1.40;;;2.50;99.90;;;;;;4992118;28;20073;-89
2021/12/20 02:04:09;;;;;;;10.35;1.23;;;2.50;99.90;;;;;;5001293;28;20361;-89
2021/12/20 02:06:40;;;;;;;5.32;1.20;;;2.40;99.90;;;;;;4994933;28;20068;-90
2021/12/20 02:09:09;;;;;;;6.03;1.50;;;2.60;99.90;;;;;;4992149;28;20697;-89
2021/12/20 02:11:41;;;;;;;6.10;0.90;;;2.50;99.90;;;;;;5003155;28;20104;-89
2021/12/20 02:14:10;;;;;;;14.30;1.63;;;2.50;99.90;;;;;;4989672;28;20207;-89
2021/12/20 02:16:38;;;;;;;9.05;1.50;;;2.50;99.90;;;;;;4960105;28;20887;-90
2021/12/20 02:19:11;;;;;;;15.15;1.73;;;2.40;99.90;;;;;;4989875;28;20073;-89
2021/12/20 02:21:39;;;;;;;5.88;1.13;;;2.50;99.90;;;;;;4993513;28;20101;-89
2021/12/20 02:24:06;;;;;;;4.35;1.15;;;2.50;99.90;;;;;;4989369;28;20511;-89
2021/12/20 02:26:33;;;;;;;6.22;1.60;;;2.50;99.90;;;;;;4991111;28;20610;-89
2021/12/20 02:29:05;;;;;;;10.07;1.30;;;2.50;99.90;;;;;;4988705;28;20491;-89
2021/12/20 02:37:19;;;;;;;10.25;1.25;;;2.50;99.90;;;;;;4989364;28;20109;-90
2021/12/20 02:39:47;;;;;;;11.23;1.50;;;2.40;99.90;;;;;;4985166;28;20081;-89
2021/12/20 02:42:19;;;;;;;7.43;1.20;;;2.40;99.90;;;;;;5000951;28;20109;-90
2021/12/20 02:44:59;;;;;;;6.43;1.02;;;2.40;99.90;;;;;;4982994;28;20095;-89
2021/12/20 02:47:28;;;;;;;11.00;1.73;;;2.30;99.90;;;;;;4976430;28;20134;-89
2021/12/20 02:49:57;;;;;;;8.93;0.85;;;2.30;99.90;;;;;;4992226;28;20124;-89
2021/12/20 02:52:26;;;;;;;9.02;1.85;;;2.20;99.90;;;;;;4992410;28;20499;-90
2021/12/20 02:54:53;;;;;;;13.45;1.13;;;2.20;99.90;;;;;;4977348;28;20050;-89
2021/12/20 02:57:20;;;;;;;13.32;1.10;;;2.20;99.90;;;;;;4992115;28;20545;-89
2021/12/20 02:59:47;;;;;;;9.80;1.48;;;2.20;99.90;;;;;;4985110;28;20142;-89
2021/12/20 03:02:14;;;;;;;12.35;1.98;;;2.20;99.90;;;;;;4973518;28;20129;-90
2021/12/20 03:04:42;;;;;;;7.18;1.00;;;2.20;99.90;;;;;;4976492;28;20058;-90
2021/12/20 03:07:14;;;;;;;9.00;1.30;;;2.10;99.90;;;;;;4993144;28;20058;-90
2021/12/20 03:09:49;;;;;;;6.50;1.05;;;2.20;99.90;;;;;;4988039;28;20146;-90
2021/12/20 03:12:15;;;;;;;;;;;2.10;99.90;;;;;;4992281;28;20791;-90
2021/12/20 03:14:46;;;;;;;11.07;1.30;;;2.20;99.90;;;;;;4988930;28;20016;-90
2021/12/20 03:17:13;;;;;;;8.05;0.90;;;2.10;99.90;;;;;;4966428;28;20039;-90
2021/12/20 03:19:40;;;;;;;6.18;1.48;;;2.10;99.90;;;;;;4989662;28;20142;-90
2021/12/20 03:22:08;;;;;;;6.65;1.02;;;1.90;99.90;;;;;;4975071;28;20852;-90
2021/12/20 03:24:42;;;;;;;6.22;1.15;;;2.10;99.90;;;;;;4991854;28;20074;-90
2021/12/20 03:27:08;;;;;;;13.67;2.17;;;2.00;99.90;;;;;;4976601;28;20059;-90
2021/12/20 03:29:36;;;;;;;13.73;1.65;;;2.00;99.90;;;;;;4986866;28;20051;-91
2021/12/20 03:32:03;;;;;;;10.55;1.52;;;1.90;99.90;;;;;;4992986;28;20116;-90
2021/12/20 03:34:30;;;;;;;7.25;1.70;;;1.90;99.90;;;;;;4990922;28;20066;-91
2021/12/20 03:36:56;;;;;;;6.93;1.42;;;1.80;99.90;;;;;;4985618;28;20100;-89
2021/12/20 03:39:23;;;;;;;10.75;1.63;;;1.80;99.90;;;;;;4992024;28;20050;-91
2021/12/20 03:41:50;;;;;;;13.55;1.58;;;1.80;99.90;;;;;;4999713;28;20104;-90
2021/12/20 03:44:17;;;;;;;5.72;1.25;;;1.70;99.90;;;;;;4991756;28;20074;-89
2021/12/20 03:46:44;;;;;;;6.13;1.70;;;1.80;99.90;;;;;;4957449;28;20046;-91
2021/12/20 03:49:11;;;;;;;9.18;1.10;;;1.80;99.90;;;;;;4978379;28;20487;-90
2021/12/20 03:51:37;;;;;;;6.18;1.25;;;1.80;99.90;;;;;;4992815;28;20046;-91
2021/12/20 03:54:05;;;;;;;5.25;1.00;;;1.80;99.90;;;;;;4991686;28;20042;-90
2021/12/20 03:56:32;;;;;;;7.38;1.25;;;1.80;99.90;;;;;;4992270;28;20113;-90
2021/12/20 03:58:59;;;;;;;4.80;1.33;;;1.70;99.90;;;;;;4993069;28;20081;-90
2021/12/20 04:01:26;;;;;;;10.63;1.35;;;1.70;99.90;;;;;;4991546;28;20054;-90
2021/12/20 04:03:53;;;;;;;10.68;1.58;;;1.60;99.90;;;;;;4998095;28;20057;-89
2021/12/20 04:06:20;;;;;;;8.35;1.15;;;1.60;99.90;;;;;;4992642;28;20562;-90
2021/12/20 04:08:55;;;;;;;3.65;1.20;;;1.60;99.90;;;;;;4990430;28;20074;-90
2021/12/20 04:11:22;;;;;;;7.97;1.50;;;1.70;99.90;;;;;;4999093;28;20138;-90
2021/12/20 04:13:48;;;;;;;6.05;1.08;;;1.70;99.90;;;;;;4990492;28;20061;-90
2021/12/20 04:16:15;;;;;;;11.95;2.05;;;1.70;99.90;;;;;;4991664;28;20742;-91
2021/12/20 04:18:42;;;;;;;11.27;1.48;;;1.70;99.90;;;;;;4992993;28;20073;-91
2021/12/20 04:21:10;;;;;;;16.27;1.70;;;1.80;99.90;;;;;;4991538;28;20133;-91
2021/12/20 04:23:37;;;;;;;10.45;1.23;;;1.80;99.90;;;;;;4991709;28;20142;-91
2021/12/20 04:26:04;;;;;;;12.20;1.33;;;1.80;99.90;;;;;;4981943;28;20482;-91
2021/12/20 04:28:30;;;;;;;5.80;1.33;;;1.80;99.90;;;;;;4958783;28;20749;-90
2021/12/20 04:30:57;;;;;;;11.13;1.83;;;1.70;99.90;;;;;;4991661;28;20088;-90
2021/12/20 04:33:24;;;;;;;11.57;1.77;;;1.70;99.90;;;;;;4989713;28;20061;-89
2021/12/20 04:35:51;;;;;;;7.20;1.70;;;1.70;99.90;;;;;;4999458;28;20042;-90
2021/12/20 04:38:20;;;;;;;8.48;1.40;;;1.60;99.90;;;;;;4974062;28;20046;-89
2021/12/20 04:40:46;;;;;;;12.38;1.42;;;1.50;99.90;;;;;;4986191;28;20081;-91
2021/12/20 04:43:13;;;;;;;13.07;1.60;;;1.50;99.90;;;;;;4992467;28;20089;-89
2021/12/20 04:45:40;;;;;;;4.38;1.10;;;1.50;99.90;;;;;;4991024;28;20077;-89
2021/12/20 04:48:09;;;;;;;11.80;1.38;;;1.50;99.90;;;;;;4991964;28;20167;-82
2021/12/20 04:50:41;;;;;;;7.70;1.50;;;1.50;99.90;;;;;;4989846;28;20078;-83
2021/12/20 04:53:10;;;;;;;6.32;1.90;;;1.60;99.90;;;;;;4980435;28;20050;-83
2021/12/20 04:55:36;;;;;;;6.47;1.40;;;1.60;99.90;;;;;;4990218;28;20765;-83
2021/12/20 04:58:05;;;;;;;9.40;1.90;;;1.60;99.90;;;;;;4988493;28;20101;-83
2021/12/20 05:00:35;;;;;;;7.85;1.13;;;1.60;99.90;;;;;;4989008;28;20074;-83
2021/12/20 05:03:04;;;;;;;16.00;1.70;;;1.70;99.90;;;;;;4973420;28;20141;-83
2021/12/20 05:05:32;;;;;;;7.07;1.25;;;1.70;99.90;;;;;;4991513;28;20487;-84
2021/12/20 05:08:03;;;;;;;11.07;1.48;;;1.80;99.90;;;;;;4992868;28;20097;-83
2021/12/20 05:10:34;;;;;;;13.18;1.38;;;1.80;99.90;;;;;;4990810;28;20133;-83
2021/12/20 05:13:04;;;;;;;15.02;1.45;;;1.80;99.90;;;;;;4996668;28;20057;-82
2021/12/20 05:15:32;;;;;;;9.82;1.45;;;1.90;99.90;;;;;;4972757;28;20089;-82
2021/12/20 05:18:01;;;;;;;7.47;1.92;;;1.90;99.90;;;;;;4971866;28;20146;-82
2021/12/20 05:20:28;;;;;;;10.65;1.17;;;1.90;99.90;;;;;;4971129;28;20092;-82
2021/12/20 05:22:56;;;;;;;19.58;2.13;;;1.90;99.90;;;;;;4988542;28;20046;-83
2021/12/20 05:25:25;;;;;;;8.27;1.50;;;1.90;99.90;;;;;;4973822;28;20141;-83
2021/12/20 05:27:52;;;;;;;10.57;1.10;;;2.00;99.90;;;;;;4989541;28;20168;-84
2021/12/20 05:30:20;;;;;;;12.73;1.67;;;1.80;99.90;;;;;;4989658;28;20054;-83
2021/12/20 05:32:48;;;;;;;8.52;1.42;;;1.80;99.90;;;;;;4983542;28;20073;-83
2021/12/20 05:35:17;;;;;;;8.25;1.40;;;1.90;99.90;;;;;;4986678;28;20046;-83
2021/12/20 05:37:44;;;;;;;24.50;1.70;;;1.80;99.90;;;;;;4992625;28;20093;-84
2021/12/20 05:40:12;;;;;;;7.50;1.10;;;1.80;99.90;;;;;;4993580;28;20050;-84
2021/12/20 05:42:40;;;;;;;8.93;0.98;;;1.80;99.90;;;;;;5002194;28;20554;-84
2021/12/20 05:45:08;;;;;;;4.85;1.20;;;1.80;99.90;;;;;;4992687;28;20082;-82
2021/12/20 05:47:35;;;;;;;11.55;1.38;;;1.90;99.90;;;;;;4990485;28;20057;-87
2021/12/20 05:50:04;;;;;;;3.83;1.17;;;1.90;99.90;;;;;;4990786;28;20078;-88
2021/12/20 05:52:31;;;;;;;7.43;1.20;;;2.00;99.90;;;;;;4993539;28;20047;-87
2021/12/20 05:54:58;;;;;;;17.55;1.63;;;1.90;99.90;;;;;;4994057;28;20065;-87
2021/12/20 05:57:24;;;;;;;16.92;1.50;;;2.10;99.90;;;;;;4994054;28;20129;-87
2021/12/20 05:59:51;;;;;;;12.75;1.42;;;2.10;99.90;;;;;;4993468;28;20096;-87
2021/12/20 06:02:18;;;;;;;6.88;1.20;;;2.00;99.90;;;;;;4993291;28;20522;-89
2021/12/20 06:04:50;;;;;;;5.13;1.30;;;2.10;99.90;;;;;;4993677;28;20690;-85
2021/12/20 06:07:18;;;;;;;20.63;2.00;;;2.00;99.90;;;;;;4993775;28;20105;-86
2021/12/20 06:09:46;;;;;;;5.35;1.30;;;2.10;99.90;;;;;;4988742;28;20129;-85
2021/12/20 06:12:14;;;;;;;6.97;0.90;;;2.00;99.90;;;;;;4982578;28;20134;-87
2021/12/20 06:14:41;;;;;;;23.30;1.50;;;2.10;99.90;;;;;;4989642;28;20540;-84
2021/12/20 06:17:08;;;;;;;10.57;1.08;;;2.00;99.90;;;;;;4992701;28;20444;-83
2021/12/20 06:19:34;;;;;;;9.43;1.27;;;2.00;99.90;;;;;;4988346;28;20086;-81
2021/12/20 06:22:10;;;;;;;7.40;1.55;;;2.00;99.90;;;;;;4992774;28;20766;-79
2021/12/20 06:24:38;;;;;;;17.35;2.10;;;1.90;99.90;;;;;;4991609;28;20165;-82
2021/12/20 06:27:05;;;;;;;7.10;1.75;;;1.80;99.90;;;;;;4992578;28;20752;-83
2021/12/20 06:29:32;;;;;;;18.75;2.72;;;1.90;99.90;;;;;;4991578;28;20054;-81
2021/12/20 06:32:04;;;;;;;22.83;3.08;;;1.80;99.90;;;;;;4995155;28;20125;-82
2021/12/20 06:34:30;;;;;;;10.10;3.15;;;1.90;99.90;;;;;;4978144;28;20077;-78
2021/12/20 06:37:00;;;;;;;9.25;2.65;;;1.80;99.90;;;;;;4991724;28;20114;-78
2021/12/20 06:39:32;;;;;;;19.05;2.63;;;1.70;99.90;;;;;;4991923;28;20058;-79
2021/12/20 06:41:58;;;;;;;15.68;1.90;;;1.60;99.90;;;;;;4991040;28;20074;-82
2021/12/20 06:44:26;;;;;;;14.00;2.28;;;1.60;99.90;;;;;;4992062;28;20084;-80
2021/12/20 06:46:54;;;;;;;17.10;2.40;;;1.50;99.90;;;;;;4984240;28;20038;-76
2021/12/20 06:49:21;;;;;;;10.40;1.65;;;1.50;99.90;;;;;;4986362;28;20054;-76
2021/12/20 06:51:48;;;;;;;6.43;1.38;;;1.50;99.90;;;;;;4988814;28;20047;-76
2021/12/20 06:54:16;;;;;;;19.27;1.98;;;1.60;99.90;;;;;;4987618;28;20814;-75
2021/12/20 06:56:44;;;;;;;9.27;1.80;;;1.60;99.90;;;;;;4985730;28;20081;-76
2021/12/20 06:59:10;;;;;;;10.13;1.70;;;1.60;99.90;;;;;;4987909;28;20112;-77
2021/12/20 07:01:38;;;;;;;16.92;2.20;;;1.70;99.90;;;;;;4988569;28;20046;-76
2021/12/20 07:04:05;;;;;;;8.93;2.10;;;1.60;99.90;;;;;;4985961;28;20094;-76
2021/12/20 07:06:33;;;;;;;18.45;2.42;;;1.60;99.90;;;;;;4986491;28;20081;-76
2021/12/20 07:09:01;;;;;;;13.85;2.97;;;1.70;99.90;;;;;;4986652;28;20145;-76
2021/12/20 07:11:28;;;;;;;13.15;2.33;;;1.70;99.90;;;;;;4988342;28;20046;-76
2021/12/20 07:13:55;;;;;;;21.80;2.25;;;1.70;99.90;;;;;;4990497;28;20551;-76
2021/12/20 07:16:22;;;;;;;9.27;1.50;;;1.60;99.90;;;;;;4989136;28;20046;-76
2021/12/20 07:18:49;;;;;;;6.20;1.77;;;1.70;99.90;;;;;;4986331;28;20105;-76
2021/12/20 07:21:17;;;;;;;6.55;1.50;;;1.60;99.90;;;;;;4988804;28;20554;-76
2021/12/20 07:23:44;;;;;;;21.15;1.42;;;1.70;99.90;;;;;;4985672;28;20136;-76
2021/12/20 07:26:12;;;;;;;11.63;1.27;;;1.70;99.90;;;;;;4986709;28;20426;-76
2021/12/20 07:28:41;;;;;;;9.00;1.90;;;1.70;99.90;;;;;;4987306;28;20499;-76
2021/12/20 07:31:09;;;;;;;9.88;1.75;;;1.50;99.90;;;;;;4987151;28;20133;-76
2021/12/20 07:33:36;;;;;;;8.80;1.50;;;1.60;99.90;;;;;;4979389;28;20077;-76
2021/12/20 07:36:03;;;;;;;9.73;1.85;;;1.50;99.90;;;;;;4989032;28;20133;-76
2021/12/20 07:38:34;;;;;;;7.60;1.73;;;1.50;99.90;;;;;;4990122;28;20046;-76
2021/12/20 07:41:02;;;;;;;10.13;1.98;;;1.50;99.90;;;;;;4987162;28;20082;-76
2021/12/20 07:43:28;;;;;;;12.18;2.83;;;1.60;99.90;;;;;;4995249;28;20144;-76
2021/12/20 07:45:55;;;;;;;8.20;1.42;;;1.50;99.90;;;;;;4981545;28;20436;-76
2021/12/20 07:48:22;;;;;;;17.35;1.90;;;1.60;99.90;;;;;;4986442;28;20046;-76
2021/12/20 07:50:51;;;;;;;12.68;1.85;;;1.60;99.90;;;;;;4988300;28;20034;-76
2021/12/20 07:53:18;;;;;;;15.57;3.45;;;1.60;99.90;;;;;;4971129;28;20050;-76
2021/12/20 07:55:44;;;;;;;9.68;2.60;;;1.60;99.90;;;;;;4985762;28;20081;-76
2021/12/20 07:58:12;;;;;;;26.17;4.45;;;1.60;99.90;;;;;;4987772;28;20136;-76
2021/12/20 08:00:38;;;;;;;29.95;4.75;;;1.50;99.90;;;;;;4970522;28;20077;-76
2021/12/20 08:03:05;;;;;;;14.82;2.42;;;1.50;99.90;;;;;;4988555;28;20158;-77
2021/12/20 08:05:32;;;;;;;12.15;1.85;;;1.50;99.90;;;;;;4985760;28;20058;-77
2021/12/20 08:07:59;;;;;;;16.35;2.20;;;1.50;99.90;;;;;;4985239;28;20081;-76
2021/12/20 08:10:27;;;;;;;12.32;2.42;;;1.40;99.90;;;;;;4984522;28;20588;-76
2021/12/20 08:12:55;;;;;;;14.38;2.25;;;1.40;99.90;;;;;;4987617;28;20042;-76
2021/12/20 08:15:22;;;;;;;24.00;2.50;;;1.50;99.90;;;;;;4981915;28;20085;-76
2021/12/20 08:17:50;;;;;;;13.82;2.47;;;1.60;99.90;;;;;;4970028;28;20084;-76
2021/12/20 08:20:17;;;;;;;19.05;2.10;;;1.60;99.90;;;;;;4987804;28;20050;-76
2021/12/20 08:22:46;;;;;;;14.40;2.35;;;1.70;99.90;;;;;;4984864;28;20082;-76
2021/12/20 08:25:13;;;;;;;13.85;2.47;;;1.80;99.90;;;;;;4969774;28;20137;-76
2021/12/20 08:27:40;;;;;;;22.58;3.10;;;1.90;99.90;;;;;;4987280;28;20171;-76
2021/12/20 08:30:08;;;;;;;25.00;3.17;;;1.90;99.90;;;;;;4986954;28;20089;-76
2021/12/20 08:32:36;;;;;;;12.30;3.58;;;2.00;99.90;;;;;;4986082;28;20141;-76
2021/12/20 08:35:05;;;;;;;11.43;3.13;;;2.00;99.90;;;;;;4985650;28;20384;-76
2021/12/20 08:37:32;;;;;;;16.33;3.33;;;2.20;99.90;;;;;;4975895;28;20166;-76
2021/12/20 08:39:59;;;;;;;8.80;2.65;;;2.30;99.90;;;;;;4976887;28;20121;-76
2021/12/20 08:42:26;;;;;;;19.48;3.40;;;2.60;99.90;;;;;;4977871;28;20085;-76
2021/12/20 08:44:53;;;;;;;22.90;3.53;;;2.50;99.90;;;;;;4993241;28;20058;-76
2021/12/20 08:47:20;;;;;;;16.35;3.40;;;2.60;99.90;;;;;;4974593;28;20707;-75
2021/12/20 08:49:48;;;;;;;17.77;4.15;;;2.60;99.90;;;;;;4984582;28;20112;-76
2021/12/20 08:52:16;;;;;;;16.95;4.07;;;2.60;99.90;;;;;;4985155;28;20054;-76
2021/12/20 08:54:43;;;;;;;15.65;3.55;;;2.60;99.90;;;;;;4986608;28;20142;-76
2021/12/20 08:57:10;;;;;;;14.60;2.50;;;2.70;99.90;;;;;;4986927;28;20582;-76
2021/12/20 08:59:37;;;;;;;11.70;2.60;;;2.70;99.90;;;;;;4984568;28;20165;-76
2021/12/20 09:02:07;;;;;;;11.05;1.98;;;2.80;99.90;;;;;;4985476;28;20076;-76
2021/12/20 09:04:34;;;;;;;13.40;2.25;;;2.80;99.90;;;;;;4984656;28;20136;-76
2021/12/20 09:07:01;;;;;;;21.92;2.25;;;2.90;99.90;;;;;;4986256;28;20054;-76
2021/12/20 09:09:29;;;;;;;8.38;1.83;;;;;;;;;;4985072;28;20468;-76
2021/12/20 09:11:56;;;;;;;19.27;2.22;;;;;;;;;;4987090;28;20048;-76
2021/12/20 09:14:25;;;;;;;14.98;2.15;;;;;;;;;;4998415;28;20132;-76
2021/12/20 09:16:54;;;;;;;13.10;2.30;;;;;;;;;;4990152;28;20898;-76
2021/12/20 09:19:21;;;;;;;17.33;2.30;;;;;;;;;;4990807;28;20154;-76
2021/12/20 09:21:49;;;;;;;8.15;2.05;;;;;;;;;;4989281;28;20089;-76
2021/12/20 09:24:16;;;;;;;33.72;2.90;;;;;;;;;;4990294;28;20531;-76
2021/12/20 09:26:43;;;;;;;10.45;2.47;;;;;;;;;;4990132;28;20471;-76
2021/12/20 09:29:10;;;;;;;11.88;2.80;;;;;;;;;;4989674;28;20085;-76
2021/12/20 09:31:38;;;;;;;22.00;1.98;;;;;;;;;;4990533;28;20142;-76
2021/12/20 09:34:05;;;;;;;10.77;2.22;;;;;;;;;;4989277;28;20047;-76
2021/12/20 09:36:33;;;;;;;12.55;2.35;;;;;;;;;;4989479;28;20132;-76
2021/12/20 09:39:01;;;;;;;12.20;2.35;;;;;;;;;;4989141;28;20070;-76
2021/12/20 09:42:00;;;;;;;23.63;2.70;;;;;;;;;;4997587;28;20142;-76
2021/12/20 09:44:16;;;;;;;10.18;1.95;;;;;;;;;;4992218;28;20141;-77
2021/12/20 09:46:43;;;;;;;13.23;1.83;;;;;;;;;;4988747;28;20078;-76
2021/12/20 09:49:10;;;;;;;11.25;1.75;;;;;;;;;;4990026;28;20050;-76
2021/12/20 09:51:37;;;;;;;8.90;1.83;;;;;;;;;;4990156;28;20056;-76
2021/12/20 09:54:05;;;;;;;50.50;7.22;;;;;;;;;;4990707;28;20150;-76
2021/12/20 09:56:32;;;;;;;28.02;5.03;;;;;;;;;;4955226;28;20086;-76
2021/12/20 09:59:00;;;;;;;21.30;2.13;;;;;;;;;;4989431;28;20575;-76
2021/12/20 10:01:28;;;;;;;12.38;1.45;;;;;;;;;;4989816;28;20543;-76
2021/12/20 10:03:56;;;;;;;8.98;1.60;;;;;;;;;;4992156;28;20119;-76
2021/12/20 10:06:23;;;;;;;13.05;1.58;;;;;;;;;;4986287;28;20054;-76
2021/12/20 10:08:53;;;;;;;19.55;2.10;;;;;;;;;;4971749;28;20054;-77
2021/12/20 10:11:25;;;;;;;14.23;2.03;;;;;;;;;;4994338;28;20047;-77
2021/12/20 10:14:09;;;;;;;16.10;1.90;;;;;;;;;;4972206;28;20088;-77
2021/12/20 10:16:37;;;;;;;11.50;1.40;;;;;;;;;;4982818;28;20073;-85
2021/12/20 10:19:06;;;;;;;14.38;1.85;;;;;;;;;;4976583;28;20055;-85
2021/12/20 10:21:36;;;;;;;10.05;1.58;;;;;;;;;;4977254;28;20614;-85
2021/12/20 10:24:03;;;;;;;9.57;2.45;;;;;;;;;;4977236;28;20133;-86
2021/12/20 10:26:38;;;;;;;11.43;2.72;;;;;;;;;;4991216;28;20054;-85
2021/12/20 10:29:16;;;;;;;7.90;1.98;;;;;;;;;;4979456;28;20535;-85
2021/12/20 10:31:44;;;;;;;8.38;2.00;;;;;;;;;;4976878;28;20141;-85
2021/12/20 10:34:13;;;;;;;6.40;1.15;;;;;;;;;;4993109;28;20133;-85
2021/12/20 10:36:53;;;;;;;3.15;1.40;;;;;;;;;;4978637;28;20118;-85
2021/12/20 10:39:41;;;;;;;9.35;1.50;;;;;;;;;;4994003;28;20585;-85
2021/12/20 10:42:14;;;;;;;5.28;1.73;;;;;;;;;;4984840;28;20472;-85
2021/12/20 10:44:41;;;;;;;8.77;1.73;;;;;;;;;;4986773;28;20137;-85
2021/12/20 10:47:23;;;;;;;10.68;2.00;;;;;;;;;;4994209;28;20479;-85
2021/12/20 10:49:54;;;;;;;10.93;1.60;;;;;;;;;;4977031;28;20082;-85
2021/12/20 10:52:28;;;;;;;8.23;1.80;;;;;;;;;;4987253;28;20079;-85
2021/12/20 10:54:55;;;;;;;11.23;2.05;;;;;;;;;;4994002;28;20848;-86
2021/12/20 10:57:28;;;;;;;12.15;1.55;;;;;;;;;;4976640;28;20111;-85
2021/12/20 11:00:22;;;;;;;9.98;2.03;;;;;;;;;;4975977;28;20058;-85
2021/12/20 11:03:24;;;;;;;6.05;1.50;;;;;;;;;;4964696;28;20078;-86
2021/12/20 11:09:08;;;;;;;11.23;1.63;;;;;;;;;;4979456;28;20082;-85
2021/12/20 11:11:40;;;;;;;13.50;2.22;;;;;;;;;;5002627;28;20082;-85
2021/12/20 11:14:08;;;;;;;17.02;1.95;;;;;;;;;;4981233;28;20112;-85
2021/12/20 11:16:35;;;;;;;7.78;2.97;;;;;;;;;;4976362;28;20081;-86
2021/12/20 11:19:18;;;;;;;8.50;2.40;;;;;;;;;;4992937;28;20058;-86
2021/12/20 11:22:05;;;;;;;6.88;1.45;;;;;;;;;;4991828;28;20042;-86
2021/12/20 11:24:40;;;;;;;5.47;2.03;;;;;;;;;;4992558;28;20062;-85
2021/12/20 11:27:16;;;;;;;10.48;1.50;;;;;;;;;;4993920;28;20094;-86
2021/12/20 11:29:44;;;;;;;13.07;2.00;;;;;;;;;;4976196;28;20133;-86
2021/12/20 11:32:12;;;;;;;10.52;2.45;;;;;;;;;;4993344;28;20085;-86
2021/12/20 11:34:41;;;;;;;9.63;2.63;;;;;;;;;;4992931;28;20868;-86
2021/12/20 11:37:13;;;;;;;6.07;2.20;;;;;;;;;;4998215;28;20072;-86
2021/12/20 11:39:50;;;;;;;12.63;3.47;;;;;;;;;;4976526;28;20062;-86
2021/12/20 11:42:18;;;;;;;6.90;1.70;;;;;;;;;;5000966;28;20133;-86
2021/12/20 11:44:46;;;;;;;9.95;2.38;;;;;;;;;;4993179;28;20093;-86
2021/12/20 11:47:16;;;;;;;7.57;1.90;;;;;;;;;;4999347;28;20128;-86
2021/12/20 11:49:43;;;;;;;9.50;2.42;;;;;;;;;;5002431;28;20498;-83
2021/12/20 11:52:18;;;;;;;6.97;2.80;;;;;;;;;;4993110;28;20130;-85
2021/12/20 11:54:47;;;;;;;9.15;2.45;;;;;;;;;;4982861;28;20049;-85
2021/12/20 11:57:34;;;;;;;7.82;1.92;;;;;;;;;;4968539;28;20471;-85
2021/12/20 12:00:05;;;;;;;7.05;1.60;;;;;;;;;;4973813;28;20122;-85
2021/12/20 12:02:37;;;;;;;6.00;1.13;;;;;;;;;;4974548;28;20086;-85
2021/12/20 12:05:06;;;;;;;14.55;1.85;;;;;;;;;;4993188;28;20058;-86
2021/12/20 12:07:35;;;;;;;9.13;1.80;;;;;;;;;;4986949;28;20104;-85
2021/12/20 12:10:05;;;;;;;11.05;1.60;;;;;;;;;;4998984;28;20713;-86
2021/12/20 12:12:38;;;;;;;6.50;1.40;;;;;;;;;;4993308;28;20077;-85
2021/12/20 12:15:08;;;;;;;5.20;1.42;;;;;;;;;;5012615;28;20050;-85
2021/12/20 12:17:52;;;;;;;11.18;1.42;;;;;;;;;;5001665;28;20189;-87
2021/12/20 12:20:39;;;;;;;13.63;1.60;;;;;;;;;;4991888;28;20061;-86
2021/12/20 12:23:25;;;;;;;15.38;1.65;;;;;;;;;;4984606;28;20050;-86
2021/12/20 12:25:54;;;;;;;8.40;1.73;;;;;;;;;;4992193;28;20133;-86
2021/12/20 12:28:23;;;;;;;5.72;1.30;;;;;;;;;;4975831;28;20050;-86
2021/12/20 12:30:57;;;;;;;9.63;1.70;;;;;;;;;;4992456;28;20054;-86
2021/12/20 12:33:26;;;;;;;7.22;1.50;;;;;;;;;;4991977;28;20659;-86
2021/12/20 12:36:11;;;;;;;8.68;1.88;;;;;;;;;;4987734;28;20047;-86
2021/12/20 12:38:47;;;;;;;10.93;2.00;;;;;;;;;;4990865;28;20125;-86
2021/12/20 12:41:21;;;;;;;8.10;2.20;;;;;;;;;;4982296;28;20046;-86
2021/12/20 12:44:03;;;;;;;3.83;1.02;;;;;;;;;;4991947;28;20069;-86
2021/12/20 12:46:36;;;;;;;6.03;1.58;;;;;;;;;;4974052;28;20133;-85
2021/12/20 12:49:24;;;;;;;7.55;1.77;;;;;;;;;;4991374;28;20104;-85
2021/12/20 12:51:52;;;;;;;8.70;1.67;;;;;;;;;;4992470;28;20049;-86
2021/12/20 12:54:38;;;;;;;5.57;1.13;;;;;;;;;;4983977;28;20057;-85
2021/12/20 12:57:09;;;;;;;4.30;2.08;;;;;;;;;;4969520;28;20050;-86
2021/12/20 12:59:45;;;;;;;10.38;1.63;;;;;;;;;;4992016;28;20638;-86
2021/12/20 13:02:24;;;;;;;8.00;1.40;;;10.60;99.90;;;;;;4988756;28;20081;-87
2021/12/20 13:05:15;;;;;;;5.45;2.33;;;11.60;99.90;;;;;;4984150;28;20492;-87
2021/12/20 13:07:48;;;;;;;9.35;1.40;;;12.00;99.90;;;;;;4989255;28;20054;-87
2021/12/20 13:10:42;;;;;;;7.28;1.42;;;12.00;99.90;;;;;;5004770;28;20129;-86
2021/12/20 13:15:53;;;;;;;8.57;1.70;;;;;;;;;;4991740;28;20042;-86
2021/12/20 13:18:30;;;;;;;9.25;1.85;;;;;;;;;;4990992;28;20130;-85
2021/12/20 13:21:01;;;;;;;6.15;1.13;;;;;;;;;;4991208;28;20064;-85
2021/12/20 13:23:46;;;;;;;12.40;1.70;;;;;;;;;;4989395;28;20475;-84
2021/12/20 13:26:19;;;;;;;5.15;1.60;;;;;;;;;;4987200;28;20077;-84
2021/12/20 13:28:51;;;;;;;6.45;1.73;;;;;;;;;;4991480;28;20189;-85
2021/12/20 13:31:18;;;;;;;4.75;1.33;;;;;;;;;;4991447;28;20074;-85
2021/12/20 13:33:47;;;;;;;7.68;1.73;;;7.40;99.90;;;;;;4991883;28;20104;-86
2021/12/20 13:36:17;;;;;;;9.40;2.13;;;7.40;99.90;;;;;;4989020;28;20082;-86
2021/12/20 13:38:47;;;;;;;6.25;1.55;;;7.50;99.90;;;;;;4998025;28;20133;-86
2021/12/20 13:41:18;;;;;;;9.10;1.63;;;7.70;99.90;;;;;;4995859;28;20559;-86
2021/12/20 13:43:56;;;;;;;9.23;1.98;;;8.00;99.90;;;;;;5000779;28;20058;-86
2021/12/20 13:49:02;;;;;;;3.30;1.42;;;7.60;99.90;;;;;;4993013;28;20065;-86